Time;durP1;ratioP1;P1;durP2;ratioP2;P2;SDS_P1;SDS_P2;PMS_P1;PMS_P2;Temp;Humidity;BMP_temperature;BMP_pressure;BME280_temperature;BME280_humidity;BME280_pressure;Samples;Min_cycle;Max_cycle;Signal;HPM_P1;HPM_P2
2021/07/30 00:02:21;;;;;;;5.03;4.13;;;24.80;67.60;;;;;;5000796;28;20196;-79
2021/07/30 00:04:47;;;;;;;9.40;4.32;;;24.80;67.40;;;;;;5008789;28;20188;-78
2021/07/30 00:07:13;;;;;;;10.98;4.22;;;24.70;67.50;;;;;;4996648;28;20181;-78
2021/07/30 00:09:39;;;;;;;8.00;4.32;;;24.70;67.70;;;;;;5007237;28;20200;-79
2021/07/30 00:12:06;;;;;;;6.35;3.95;;;24.70;67.80;;;;;;5004239;28;20185;-79
2021/07/30 00:14:32;;;;;;;10.20;5.07;;;24.70;67.50;;;;;;4997258;28;20288;-80
2021/07/30 00:16:58;;;;;;;17.60;4.85;;;24.70;68.00;;;;;;5005496;28;20681;-79
2021/07/30 00:19:24;;;;;;;12.63;4.80;;;24.70;67.80;;;;;;4991898;28;20189;-79
2021/07/30 00:21:50;;;;;;;10.73;4.50;;;24.70;68.20;;;;;;4997155;28;20960;-79
2021/07/30 00:24:16;;;;;;;11.77;4.80;;;24.70;67.90;;;;;;5001543;28;20220;-78
2021/07/30 00:26:43;;;;;;;16.52;4.10;;;24.60;68.00;;;;;;5002044;28;20331;-77
2021/07/30 00:29:09;;;;;;;14.23;4.63;;;24.60;68.10;;;;;;5007257;28;20188;-77
2021/07/30 00:31:34;;;;;;;10.57;4.43;;;24.60;67.50;;;;;;5005735;28;20653;-78
2021/07/30 00:34:00;;;;;;;11.55;4.70;;;24.50;68.30;;;;;;5006984;28;20205;-78
2021/07/30 00:36:26;;;;;;;10.20;4.25;;;24.50;68.20;;;;;;5004002;28;20584;-77
2021/07/30 00:38:51;;;;;;;8.07;4.55;;;24.40;68.60;;;;;;5001504;28;20223;-77
2021/07/30 00:41:17;;;;;;;10.82;4.00;;;24.30;69.10;;;;;;4990115;28;20190;-79
2021/07/30 00:43:43;;;;;;;9.07;4.53;;;24.30;68.30;;;;;;5005934;28;20205;-79
2021/07/30 00:46:09;;;;;;;4.60;3.97;;;24.30;68.40;;;;;;4999951;28;20193;-79
2021/07/30 00:48:34;;;;;;;13.18;4.90;;;24.30;69.00;;;;;;5001582;28;20193;-79
2021/07/30 00:51:00;;;;;;;9.48;4.35;;;24.20;69.20;;;;;;5003777;28;20197;-80
2021/07/30 00:53:27;;;;;;;10.38;4.07;;;24.20;69.40;;;;;;4988583;28;20225;-79
2021/07/30 00:55:57;;;;;;;14.13;5.10;;;24.20;69.60;;;;;;5001145;28;20204;-79
2021/07/30 00:58:24;;;;;;;12.10;4.97;;;24.20;69.50;;;;;;4999685;28;20900;-79
2021/07/30 01:00:51;;;;;;;10.25;4.60;;;24.10;69.80;;;;;;5002061;28;20590;-79
2021/07/30 01:03:17;;;;;;;8.23;5.20;;;24.10;70.20;;;;;;5001187;28;20216;-79
2021/07/30 01:05:43;;;;;;;7.50;4.97;;;24.10;70.20;;;;;;5007302;28;20765;-79
2021/07/30 01:08:09;;;;;;;8.23;4.60;;;24.00;70.60;;;;;;5002093;28;20553;-79
2021/07/30 01:10:35;;;;;;;8.05;4.47;;;24.00;70.20;;;;;;4999280;28;20271;-79
2021/07/30 01:13:00;;;;;;;12.45;5.18;;;24.00;71.10;;;;;;5008855;28;20722;-79
2021/07/30 01:15:26;;;;;;;8.65;4.30;;;23.90;70.50;;;;;;5008842;28;20188;-79
2021/07/30 01:17:52;;;;;;;8.40;4.07;;;23.90;70.40;;;;;;4995022;28;20195;-79
2021/07/30 01:20:25;;;;;;;8.25;4.65;;;23.90;70.40;;;;;;5004919;28;20193;-79
2021/07/30 01:22:55;;;;;;;9.60;4.68;;;23.90;70.60;;;;;;4999141;28;20307;-79
2021/07/30 01:25:21;;;;;;;8.25;5.25;;;23.80;70.30;;;;;;5004812;28;20596;-79
2021/07/30 01:27:49;;;;;;;13.75;5.03;;;23.70;70.60;;;;;;4993975;28;20185;-79
2021/07/30 01:30:16;;;;;;;8.38;4.93;;;23.60;70.50;;;;;;5002203;28;20216;-79
2021/07/30 01:32:42;;;;;;;8.18;4.53;;;23.50;70.70;;;;;;5007329;28;20192;-79
2021/07/30 01:35:10;;;;;;;8.65;4.60;;;23.50;71.30;;;;;;5002646;28;20192;-79
2021/07/30 01:37:36;;;;;;;5.72;4.65;;;23.50;71.40;;;;;;5004219;28;20256;-79
2021/07/30 01:40:03;;;;;;;8.20;4.60;;;23.50;72.10;;;;;;5002152;28;20181;-79
2021/07/30 01:42:29;;;;;;;9.13;4.75;;;23.40;71.10;;;;;;5007360;28;20618;-77
2021/07/30 01:44:55;;;;;;;11.13;3.95;;;23.40;71.20;;;;;;5005433;28;20178;-78
2021/07/30 01:47:22;;;;;;;8.07;4.25;;;23.40;71.20;;;;;;5016089;28;20185;-78
2021/07/30 01:49:51;;;;;;;14.98;4.53;;;23.30;71.10;;;;;;5011063;28;20182;-78
2021/07/30 01:52:17;;;;;;;10.20;3.97;;;23.30;70.60;;;;;;5016717;28;20197;-77
2021/07/30 01:54:45;;;;;;;10.23;3.88;;;23.30;70.90;;;;;;5006100;28;20199;-78
2021/07/30 01:57:11;;;;;;;7.70;3.97;;;23.30;71.60;;;;;;5024529;28;20630;-78
2021/07/30 01:59:37;;;;;;;6.25;3.92;;;23.30;71.00;;;;;;5012786;28;20185;-77
2021/07/30 02:02:03;;;;;;;9.80;4.60;;;23.30;71.00;;;;;;5016118;28;20231;-79
2021/07/30 02:04:29;;;;;;;10.52;4.38;;;23.30;71.80;;;;;;5018469;28;20690;-79
2021/07/30 02:06:54;;;;;;;12.27;4.55;;;23.30;72.00;;;;;;5014926;28;20192;-79
2021/07/30 02:09:20;;;;;;;9.45;4.63;;;23.30;71.30;;;;;;5015496;28;20180;-79
2021/07/30 02:11:50;;;;;;;6.80;3.78;;;23.30;71.40;;;;;;5003310;28;20189;-77
2021/07/30 02:14:17;;;;;;;7.57;4.05;;;23.30;71.70;;;;;;5001302;28;20186;-80
2021/07/30 02:16:45;;;;;;;5.93;4.90;;;23.20;71.50;;;;;;4998342;28;20177;-79
2021/07/30 02:19:10;;;;;;;6.30;4.30;;;23.20;71.70;;;;;;4989844;28;20190;-80
2021/07/30 02:21:36;;;;;;;8.35;4.82;;;23.20;72.00;;;;;;5000820;28;20713;-79
2021/07/30 02:24:02;;;;;;;11.65;4.35;;;23.20;72.20;;;;;;5005114;28;20216;-79
2021/07/30 02:26:28;;;;;;;6.60;4.30;;;23.20;73.20;;;;;;5007133;28;20180;-79
2021/07/30 02:28:56;;;;;;;9.50;4.30;;;23.20;72.50;;;;;;4994903;28;20192;-78
2021/07/30 02:31:25;;;;;;;8.98;4.75;;;23.20;72.30;;;;;;4999245;28;20955;-79
2021/07/30 02:33:52;;;;;;;10.48;4.78;;;23.20;73.10;;;;;;5004315;28;20284;-78
2021/07/30 02:36:18;;;;;;;8.07;4.78;;;23.20;72.60;;;;;;5001652;28;20220;-78
2021/07/30 02:38:44;;;;;;;11.60;5.03;;;23.10;72.70;;;;;;5007764;28;20642;-78
2021/07/30 02:41:09;;;;;;;8.15;4.43;;;23.10;73.10;;;;;;4990007;28;20217;-79
2021/07/30 02:43:35;;;;;;;9.35;4.72;;;23.10;73.00;;;;;;5010200;28;20236;-79
2021/07/30 02:46:02;;;;;;;7.35;4.57;;;23.10;73.30;;;;;;5010513;28;20709;-79
2021/07/30 02:48:28;;;;;;;9.57;4.60;;;23.10;72.80;;;;;;5002838;28;20189;-79
2021/07/30 02:50:54;;;;;;;9.88;4.60;;;23.10;72.90;;;;;;5009516;28;20777;-79
2021/07/30 02:53:20;;;;;;;9.02;4.72;;;23.00;73.20;;;;;;5011714;28;20216;-78
2021/07/30 02:55:46;;;;;;;10.75;4.50;;;23.00;73.40;;;;;;5002039;28;20190;-78
2021/07/30 02:58:14;;;;;;;12.55;4.43;;;23.00;73.90;;;;;;5009491;28;20224;-78
2021/07/30 03:00:40;;;;;;;14.82;5.22;;;22.90;73.20;;;;;;5008936;28;20675;-78
2021/07/30 03:03:06;;;;;;;12.00;4.47;;;22.90;73.50;;;;;;5004911;28;20247;-79
2021/07/30 03:05:32;;;;;;;8.48;4.53;;;22.90;73.80;;;;;;5003385;28;20189;-79
2021/07/30 03:07:57;;;;;;;8.68;4.35;;;22.80;73.90;;;;;;5010779;28;20185;-79
2021/07/30 03:10:23;;;;;;;12.23;4.53;;;22.80;74.10;;;;;;4996957;28;20193;-79
2021/07/30 03:12:49;;;;;;;9.32;4.55;;;22.70;74.30;;;;;;5010529;28;20192;-78
2021/07/30 03:15:14;;;;;;;9.98;4.55;;;22.70;74.20;;;;;;5000657;28;20276;-78
2021/07/30 03:17:40;;;;;;;8.35;4.63;;;22.70;75.50;;;;;;4998883;28;20189;-78
2021/07/30 03:20:07;;;;;;;11.45;4.75;;;22.60;74.40;;;;;;5005815;28;20680;-78
2021/07/30 03:22:34;;;;;;;9.55;5.50;;;22.60;74.40;;;;;;5009354;28;20291;-78
2021/07/30 03:25:00;;;;;;;9.90;5.13;;;22.60;74.50;;;;;;5004861;28;20567;-78
2021/07/30 03:27:26;;;;;;;9.98;4.65;;;22.50;74.40;;;;;;5004207;28;20247;-79
2021/07/30 03:29:52;;;;;;;7.00;4.20;;;22.50;74.80;;;;;;5006746;28;20183;-79
2021/07/30 03:32:19;;;;;;;8.38;4.65;;;22.50;74.60;;;;;;5018375;28;20196;-79
2021/07/30 03:34:46;;;;;;;6.93;4.18;;;22.50;74.70;;;;;;4998410;28;20185;-79
2021/07/30 03:37:12;;;;;;;9.50;5.10;;;22.50;74.70;;;;;;4989453;28;20725;-79
2021/07/30 03:39:38;;;;;;;10.00;5.20;;;22.50;74.80;;;;;;4992896;28;20243;-78
2021/07/30 03:42:04;;;;;;;7.75;4.68;;;22.50;74.80;;;;;;4996639;28;20177;-78
2021/07/30 03:44:30;;;;;;;5.78;4.63;;;22.50;74.80;;;;;;5001158;28;20213;-79
2021/07/30 03:46:56;;;;;;;9.38;4.25;;;22.50;74.80;;;;;;5009323;28;20258;-78
2021/07/30 03:49:21;;;;;;;11.27;4.85;;;22.50;75.00;;;;;;5005714;28;20666;-80
2021/07/30 03:51:47;;;;;;;6.70;4.72;;;22.50;74.80;;;;;;5001726;28;20200;-79
2021/07/30 03:54:13;;;;;;;10.32;4.95;;;22.50;74.60;;;;;;5005425;28;20197;-79
2021/07/30 03:56:42;;;;;;;12.15;4.57;;;22.50;74.70;;;;;;5008752;28;20681;-79
2021/07/30 03:59:09;;;;;;;10.27;5.57;;;22.50;74.70;;;;;;5004052;28;20212;-78
2021/07/30 04:01:35;;;;;;;5.22;4.30;;;22.50;74.50;;;;;;5002970;28;20290;-78
2021/07/30 04:04:00;;;;;;;10.30;5.55;;;22.60;74.50;;;;;;5007858;28;20213;-78
2021/07/30 04:06:26;;;;;;;7.10;4.88;;;22.60;74.60;;;;;;5010164;28;20204;-78
2021/07/30 04:08:52;;;;;;;6.25;4.00;;;22.60;74.70;;;;;;4998061;28;20986;-78
2021/07/30 04:11:18;;;;;;;5.90;4.70;;;22.60;74.60;;;;;;5005209;28;20219;-78
2021/07/30 04:13:46;;;;;;;7.00;5.10;;;22.60;74.60;;;;;;5007842;28;20181;-78
2021/07/30 04:16:12;;;;;;;9.68;4.68;;;22.70;74.50;;;;;;5007411;28;20267;-78
2021/07/30 04:18:38;;;;;;;7.65;4.03;;;22.70;74.50;;;;;;5002407;28;20188;-78
2021/07/30 04:21:07;;;;;;;10.93;4.60;;;22.70;74.60;;;;;;5007355;28;20188;-78
2021/07/30 04:23:34;;;;;;;6.97;4.45;;;22.80;74.30;;;;;;5004948;28;20220;-78
2021/07/30 04:26:01;;;;;;;6.55;4.53;;;22.80;74.40;;;;;;5006171;28;20264;-79
2021/07/30 04:28:27;;;;;;;6.72;4.15;;;22.90;74.50;;;;;;5002825;28;20193;-79
2021/07/30 04:30:52;;;;;;;10.45;4.72;;;22.90;74.50;;;;;;5005563;28;20189;-79
2021/07/30 04:33:18;;;;;;;8.38;4.75;;;22.90;74.30;;;;;;5006458;28;20191;-80
2021/07/30 04:35:44;;;;;;;4.47;4.07;;;22.90;74.10;;;;;;5005648;28;20271;-80
2021/07/30 04:38:10;;;;;;;10.68;4.85;;;23.00;74.40;;;;;;5005202;28;20197;-75
2021/07/30 04:40:40;;;;;;;9.70;4.93;;;23.00;73.80;;;;;;5001837;28;20208;-74
2021/07/30 04:43:05;;;;;;;7.47;4.63;;;23.10;73.60;;;;;;5007456;28;20294;-74
2021/07/30 04:45:34;;;;;;;12.27;5.22;;;23.10;73.60;;;;;;5005677;28;20173;-73
2021/07/30 04:48:00;;;;;;;10.93;4.82;;;23.10;73.40;;;;;;4999208;28;20247;-73
2021/07/30 04:50:26;;;;;;;10.48;4.15;;;23.10;73.30;;;;;;5001421;28;20204;-74
2021/07/30 04:52:55;;;;;;;8.02;4.10;;;23.10;73.60;;;;;;5001775;28;20280;-73
2021/07/30 04:55:21;;;;;;;9.77;3.70;;;23.10;73.70;;;;;;5002391;28;20619;-74
2021/07/30 04:57:46;;;;;;;5.43;4.43;;;23.20;73.50;;;;;;5000713;28;20211;-76
2021/07/30 05:00:12;;;;;;;10.43;4.70;;;23.20;72.90;;;;;;5003355;28;20195;-76
2021/07/30 05:02:38;;;;;;;11.57;4.82;;;23.20;72.70;;;;;;4999277;28;20196;-78
2021/07/30 05:05:04;;;;;;;9.25;4.68;;;23.30;72.90;;;;;;4996483;28;20198;-76
2021/07/30 05:07:30;;;;;;;15.65;4.72;;;23.30;72.80;;;;;;5002883;28;20243;-77
2021/07/30 05:09:55;;;;;;;15.65;4.65;;;23.30;72.60;;;;;;4996797;28;20192;-77
2021/07/30 05:12:21;;;;;;;8.57;4.38;;;23.40;72.70;;;;;;4994453;28;20189;-76
2021/07/30 05:14:47;;;;;;;7.38;4.72;;;23.40;73.00;;;;;;4993540;28;20193;-77
2021/07/30 05:17:12;;;;;;;9.50;4.35;;;23.40;73.50;;;;;;4993691;28;20182;-76
2021/07/30 05:19:39;;;;;;;7.97;5.35;;;23.50;73.70;;;;;;5027293;28;20882;-76
2021/07/30 05:22:04;;;;;;;19.52;5.28;;;23.50;73.90;;;;;;5008154;28;20182;-77
2021/07/30 05:24:30;;;;;;;13.68;6.30;;;23.50;73.80;;;;;;4998775;28;20231;-75
2021/07/30 05:26:56;;;;;;;12.52;5.80;;;23.50;73.50;;;;;;5006197;28;20208;-77
2021/07/30 05:29:21;;;;;;;8.82;4.22;;;23.50;75.70;;;;;;5005494;28;20223;-76
2021/07/30 05:31:47;;;;;;;11.20;5.07;;;23.60;73.40;;;;;;5002781;28;20181;-75
2021/07/30 05:34:13;;;;;;;8.40;5.53;;;23.60;73.50;;;;;;5004058;28;20196;-75
2021/07/30 05:36:41;;;;;;;8.32;4.90;;;23.70;73.30;;;;;;5004417;28;20216;-76
2021/07/30 05:39:06;;;;;;;13.05;6.65;;;23.70;73.50;;;;;;4998913;28;20272;-76
2021/07/30 05:41:32;;;;;;;11.35;5.43;;;23.70;73.20;;;;;;5001980;28;20730;-74
2021/07/30 05:43:57;;;;;;;13.68;5.13;;;23.70;73.00;;;;;;4998487;28;20229;-76
2021/07/30 05:46:23;;;;;;;15.48;5.20;;;23.80;72.90;;;;;;5002643;28;20575;-73
2021/07/30 05:48:52;;;;;;;15.02;5.13;;;23.80;72.40;;;;;;5003201;28;20188;-74
2021/07/30 05:51:18;;;;;;;11.10;5.55;;;23.80;72.20;;;;;;5004148;28;21005;-75
2021/07/30 05:53:43;;;;;;;17.13;5.85;;;23.90;71.90;;;;;;5001696;28;20204;-75
2021/07/30 05:56:09;;;;;;;11.20;5.40;;;23.90;71.90;;;;;;5004837;28;20193;-74
2021/07/30 05:58:35;;;;;;;12.43;5.95;;;24.00;71.90;;;;;;5005355;28;20704;-75
2021/07/30 06:01:01;;;;;;;11.57;5.57;;;24.00;72.20;;;;;;5004817;28;20195;-75
2021/07/30 06:03:27;;;;;;;9.30;4.90;;;24.10;71.70;;;;;;5005307;28;20279;-75
2021/07/30 06:05:52;;;;;;;20.85;5.75;;;24.20;71.40;;;;;;5003409;28;20180;-75
2021/07/30 06:08:18;;;;;;;12.25;5.40;;;24.20;71.10;;;;;;5005539;28;20191;-74
2021/07/30 06:10:44;;;;;;;11.63;5.47;;;24.30;71.10;;;;;;5004778;28;20188;-74
2021/07/30 06:13:09;;;;;;;12.98;5.50;;;24.30;70.90;;;;;;5004949;28;20191;-75
2021/07/30 06:15:35;;;;;;;11.93;6.15;;;24.40;70.90;;;;;;4992059;28;20651;-75
2021/07/30 06:18:02;;;;;;;13.35;5.47;;;24.50;71.00;;;;;;5005989;28;20189;-75
2021/07/30 06:20:28;;;;;;;8.80;5.13;;;24.50;71.00;;;;;;5007152;28;20195;-74
2021/07/30 06:22:54;;;;;;;14.88;5.50;;;24.60;70.70;;;;;;5006772;28;20236;-75
2021/07/30 06:25:20;;;;;;;10.27;5.90;;;24.70;70.70;;;;;;5007309;28;20279;-75
2021/07/30 06:27:45;;;;;;;12.25;6.18;;;24.80;70.50;;;;;;5004588;28;20195;-74
2021/07/30 06:30:12;;;;;;;13.82;5.47;;;24.80;70.50;;;;;;5006739;28;20188;-75
2021/07/30 06:32:38;;;;;;;10.27;5.55;;;24.90;70.30;;;;;;5007277;28;20185;-75
2021/07/30 06:35:05;;;;;;;13.70;4.97;;;24.90;69.60;;;;;;5004688;28;20187;-76
2021/07/30 06:37:37;;;;;;;13.20;5.97;;;25.00;69.70;;;;;;5006805;28;20188;-76
2021/07/30 06:40:04;;;;;;;11.65;5.82;;;25.10;69.50;;;;;;5003758;28;20191;-76
2021/07/30 06:42:34;;;;;;;12.13;5.57;;;25.20;69.10;;;;;;5006356;28;20554;-76
2021/07/30 06:45:00;;;;;;;13.90;5.70;;;25.20;68.70;;;;;;5002613;28;20213;-77
2021/07/30 06:47:26;;;;;;;8.57;5.70;;;25.30;68.90;;;;;;5001538;28;20186;-74
2021/07/30 06:49:51;;;;;;;14.95;5.75;;;25.40;69.00;;;;;;5001097;28;20550;-76
2021/07/30 06:52:17;;;;;;;19.40;5.43;;;25.40;69.40;;;;;;5004439;28;20197;-78
2021/07/30 06:54:43;;;;;;;11.32;5.68;;;25.50;69.30;;;;;;5003832;28;20185;-77
2021/07/30 06:57:09;;;;;;;14.27;5.72;;;25.60;68.50;;;;;;5005605;28;20782;-77
2021/07/30 06:59:35;;;;;;;19.70;5.70;;;25.70;68.80;;;;;;5006686;28;20185;-77
2021/07/30 07:02:04;;;;;;;11.52;5.35;;;25.70;68.60;;;;;;5002452;28;20675;-76
2021/07/30 07:04:30;;;;;;;13.65;5.10;;;25.80;67.80;;;;;;5003805;28;20917;-77
2021/07/30 07:06:57;;;;;;;9.65;5.28;;;25.90;68.10;;;;;;5006397;28;20181;-77
2021/07/30 07:09:23;;;;;;;12.07;5.38;;;25.90;68.10;;;;;;5005953;28;20536;-78
2021/07/30 07:11:49;;;;;;;12.82;5.15;;;26.00;67.60;;;;;;5004408;28;20582;-78
2021/07/30 07:14:15;;;;;;;13.13;5.45;;;26.10;67.70;;;;;;5006018;28;20189;-79
2021/07/30 07:16:42;;;;;;;10.93;5.90;;;26.20;67.90;;;;;;5005918;28;20191;-75
2021/07/30 07:19:11;;;;;;;17.73;4.97;;;26.30;67.70;;;;;;5004009;28;20196;-76
2021/07/30 07:21:40;;;;;;;19.70;5.05;;;26.40;67.30;;;;;;5006385;28;20240;-75
2021/07/30 07:24:07;;;;;;;20.08;6.07;;;26.40;66.90;;;;;;5004440;28;20225;-75
2021/07/30 07:26:35;;;;;;;11.23;5.68;;;26.50;66.30;;;;;;5004774;28;20177;-75
2021/07/30 07:29:01;;;;;;;10.13;5.45;;;26.60;66.60;;;;;;5004389;28;20180;-75
2021/07/30 07:31:27;;;;;;;13.57;5.20;;;26.70;66.70;;;;;;5008305;28;20173;-75
2021/07/30 07:33:52;;;;;;;10.07;5.47;;;26.80;66.50;;;;;;5004151;28;20189;-76
2021/07/30 07:36:18;;;;;;;11.43;5.22;;;26.80;65.20;;;;;;5004514;28;20774;-76
2021/07/30 07:38:44;;;;;;;10.88;5.80;;;26.90;65.50;;;;;;5004608;28;20185;-75
2021/07/30 07:41:10;;;;;;;21.95;6.30;;;27.00;66.00;;;;;;5006562;28;20842;-74
2021/07/30 07:43:37;;;;;;;13.00;5.70;;;27.10;66.00;;;;;;5007332;28;20304;-76
2021/07/30 07:46:02;;;;;;;15.30;5.68;;;27.20;66.10;;;;;;5008211;28;20584;-75
2021/07/30 07:48:28;;;;;;;13.02;5.18;;;27.30;65.90;;;;;;5010056;28;20181;-75
2021/07/30 07:50:54;;;;;;;15.90;5.70;;;27.40;64.80;;;;;;5007392;28;20196;-75
2021/07/30 07:53:20;;;;;;;12.63;5.50;;;27.40;64.90;;;;;;5007795;28;20665;-74
2021/07/30 07:55:46;;;;;;;12.52;6.05;;;27.50;65.10;;;;;;5004897;28;20180;-75
2021/07/30 07:58:12;;;;;;;6.75;5.20;;;27.60;64.90;;;;;;5009071;28;20994;-75
2021/07/30 08:00:39;;;;;;;13.52;6.38;;;27.70;64.90;;;;;;5008808;28;20178;-75
2021/07/30 08:03:05;;;;;;;10.40;5.78;;;27.80;64.80;;;;;;5009005;28;20203;-74
2021/07/30 08:05:30;;;;;;;10.45;5.97;;;27.90;65.30;;;;;;5008585;28;20180;-75
2021/07/30 08:07:57;;;;;;;12.75;5.57;;;;;;;;;;5009544;28;20181;-75
2021/07/30 08:10:23;;;;;;;13.07;5.15;;;28.10;64.00;;;;;;5006507;28;20177;-76
2021/07/30 08:12:49;;;;;;;12.95;5.35;;;28.20;64.00;;;;;;5008447;28;20209;-76
2021/07/30 08:15:14;;;;;;;15.27;5.78;;;28.30;63.30;;;;;;5007741;28;20716;-75
2021/07/30 08:17:40;;;;;;;13.95;5.40;;;28.40;64.20;;;;;;5005220;28;20599;-76
2021/07/30 08:20:09;;;;;;;9.77;5.55;;;28.40;63.90;;;;;;5007105;28;20690;-76
2021/07/30 08:22:35;;;;;;;9.45;4.85;;;28.50;62.80;;;;;;5006480;28;20595;-76
2021/07/30 08:25:01;;;;;;;10.07;6.15;;;28.60;62.90;;;;;;5004183;28;20296;-76
2021/07/30 08:27:27;;;;;;;12.05;5.43;;;28.70;63.00;;;;;;5005444;28;20631;-76
2021/07/30 08:29:53;;;;;;;15.95;5.50;;;28.80;63.00;;;;;;5007899;28;20196;-76
2021/07/30 08:32:18;;;;;;;12.65;5.68;;;28.90;62.30;;;;;;5008362;28;20661;-76
2021/07/30 08:34:44;;;;;;;10.15;5.00;;;29.00;61.60;;;;;;5008175;28;20193;-76
2021/07/30 08:37:10;;;;;;;14.25;5.95;;;29.10;62.00;;;;;;5008665;28;20177;-76
2021/07/30 08:39:37;;;;;;;18.35;5.72;;;29.30;61.40;;;;;;5008256;28;20181;-77
2021/07/30 08:42:04;;;;;;;15.07;5.30;;;29.40;61.00;;;;;;5008935;28;20173;-76
2021/07/30 08:44:30;;;;;;;15.75;5.40;;;29.50;60.50;;;;;;5006060;28;20217;-76
2021/07/30 08:46:56;;;;;;;17.35;6.15;;;29.60;60.20;;;;;;5008792;28;20268;-75
2021/07/30 08:49:22;;;;;;;8.52;5.53;;;29.70;60.20;;;;;;5007335;28;20217;-75
2021/07/30 08:51:54;;;;;;;8.48;4.95;;;29.90;59.00;;;;;;5009038;28;20239;-74
2021/07/30 08:54:19;;;;;;;9.80;5.53;;;30.00;59.20;;;;;;5006866;28;20177;-76
2021/07/30 08:56:47;;;;;;;18.63;5.43;;;30.10;59.60;;;;;;5006129;28;20181;-75
2021/07/30 08:59:13;;;;;;;13.45;4.80;;;30.30;59.40;;;;;;5004445;28;20262;-75
2021/07/30 09:01:38;;;;;;;5.90;4.70;;;30.40;59.40;;;;;;5005734;28;20180;-75
2021/07/30 09:04:04;;;;;;;18.40;6.15;;;30.60;59.40;;;;;;5006451;28;20244;-75
2021/07/30 09:06:30;;;;;;;15.82;5.57;;;30.70;58.80;;;;;;5008411;28;20177;-74
2021/07/30 09:09:02;;;;;;;11.77;5.60;;;30.80;58.70;;;;;;5007261;28;20587;-75
2021/07/30 09:11:32;;;;;;;7.85;5.32;;;31.00;58.80;;;;;;5006486;28;20185;-74
2021/07/30 09:13:59;;;;;;;10.20;5.38;;;31.10;58.50;;;;;;5007559;28;20182;-75
2021/07/30 09:16:25;;;;;;;12.60;5.70;;;31.20;58.30;;;;;;5008164;28;20231;-75
2021/07/30 09:18:53;;;;;;;10.40;5.40;;;31.30;58.10;;;;;;5007294;28;20686;-75
2021/07/30 09:21:24;;;;;;;16.38;5.55;;;31.50;58.40;;;;;;5008208;28;20192;-75
2021/07/30 09:23:55;;;;;;;12.30;5.20;;;31.60;57.70;;;;;;5007839;28;20263;-75
2021/07/30 09:26:27;;;;;;;13.98;5.03;;;31.80;56.50;;;;;;5007804;28;20188;-75
2021/07/30 09:28:57;;;;;;;9.13;5.10;;;32.00;57.20;;;;;;5006949;28;20260;-75
2021/07/30 09:31:47;;;;;;;8.65;4.57;;;32.10;57.50;;;;;;5005721;28;20191;-75
2021/07/30 09:34:24;;;;;;;14.27;5.53;;;32.30;57.10;;;;;;4981839;28;20632;-73
2021/07/30 09:37:08;;;;;;;9.50;4.65;;;32.50;56.00;;;;;;4983529;28;20240;-75
2021/07/30 09:39:33;;;;;;;13.00;5.88;;;32.70;55.40;;;;;;4985426;28;20599;-76
2021/07/30 09:42:04;;;;;;;8.70;4.43;;;32.90;55.10;;;;;;4977491;28;20194;-76
2021/07/30 09:44:50;;;;;;;8.98;4.38;;;33.10;54.50;;;;;;4982824;28;20221;-76
2021/07/30 09:47:16;;;;;;;7.95;4.80;;;;;;;;;;4983986;28;20186;-76
2021/07/30 09:49:45;;;;;;;14.65;5.32;;;33.50;53.60;;;;;;4983150;28;20690;-76
2021/07/30 09:52:16;;;;;;;8.18;4.28;;;33.80;53.30;;;;;;4980916;28;20287;-76
2021/07/30 09:54:45;;;;;;;15.18;5.18;;;34.10;51.80;;;;;;4985406;28;20186;-76
2021/07/30 09:57:14;;;;;;;18.63;4.50;;;34.30;52.40;;;;;;4984249;28;20702;-76
2021/07/30 09:59:43;;;;;;;19.40;4.88;;;34.70;50.20;;;;;;4984993;28;20185;-76
2021/07/30 10:02:12;;;;;;;11.75;5.07;;;35.00;50.60;;;;;;4984814;28;20268;-76
2021/07/30 10:04:43;;;;;;;12.25;4.40;;;35.40;50.70;;;;;;4984045;28;20227;-74
2021/07/30 10:07:11;;;;;;;16.52;5.07;;;35.70;50.50;;;;;;4968272;28;20204;-76
2021/07/30 10:09:37;;;;;;;13.68;4.15;;;36.20;49.60;;;;;;4984154;28;20192;-76
2021/07/30 10:12:04;;;;;;;13.63;4.47;;;36.60;49.10;;;;;;5002021;28;20192;-76
2021/07/30 10:14:30;;;;;;;12.38;3.97;;;37.20;46.10;;;;;;5006796;28;20214;-76
2021/07/30 10:17:02;;;;;;;13.70;3.90;;;37.70;45.90;;;;;;5002523;28;20184;-76
2021/07/30 10:19:32;;;;;;;13.20;4.25;;;38.70;44.50;;;;;;5002871;28;20184;-76
2021/07/30 10:22:02;;;;;;;13.20;4.22;;;39.40;43.50;;;;;;5001980;28;20646;-74
2021/07/30 10:24:30;;;;;;;10.40;4.75;;;39.50;43.80;;;;;;5005423;28;20208;-75
2021/07/30 10:27:01;;;;;;;9.07;4.20;;;40.00;44.80;;;;;;5002048;28;20180;-77
2021/07/30 10:29:27;;;;;;;13.10;6.03;;;40.50;43.50;;;;;;5004921;28;20234;-75
2021/07/30 10:31:53;;;;;;;8.10;3.80;;;41.10;42.30;;;;;;5006872;28;20576;-75
2021/07/30 10:34:48;;;;;;;10.57;4.35;;;41.50;43.60;;;;;;5006953;28;20258;-75
2021/07/30 10:37:36;;;;;;;12.68;4.47;;;42.60;41.30;;;;;;5004813;28;20756;-76
2021/07/30 10:40:23;;;;;;;16.42;4.15;;;42.70;40.90;;;;;;5006288;28;20180;-75
2021/07/30 10:43:09;;;;;;;9.15;4.43;;;43.20;40.40;;;;;;5005845;28;20631;-75
2021/07/30 10:45:43;;;;;;;14.02;4.75;;;43.60;40.20;;;;;;5006589;28;20191;-75
2021/07/30 10:48:11;;;;;;;16.55;4.18;;;44.00;41.50;;;;;;5005451;28;20184;-76
2021/07/30 10:50:48;;;;;;;15.00;3.90;;;44.40;40.80;;;;;;5006420;28;20207;-75
2021/07/30 10:53:36;;;;;;;18.70;4.22;;;44.80;39.90;;;;;;5005409;28;20701;-75
2021/07/30 10:56:04;;;;;;;12.32;3.67;;;44.80;38.80;;;;;;5005765;28;20177;-75
2021/07/30 10:58:55;;;;;;;10.95;4.05;;;45.10;39.60;;;;;;5003956;28;20253;-75
2021/07/30 11:01:44;;;;;;;16.00;4.18;;;45.40;38.70;;;;;;5006016;28;20216;-75
2021/07/30 11:04:10;;;;;;;12.35;4.35;;;45.80;38.10;;;;;;5005664;28;20212;-76
2021/07/30 11:06:39;;;;;;;9.75;3.88;;;46.10;40.50;;;;;;5008219;28;20180;-75
2021/07/30 11:09:05;;;;;;;12.25;4.45;;;46.30;38.80;;;;;;5008401;28;20254;-75
2021/07/30 11:11:42;;;;;;;10.27;3.58;;;46.50;38.80;;;;;;5008840;28;20646;-75
2021/07/30 11:14:27;;;;;;;12.23;4.30;;;46.70;37.50;;;;;;5008910;28;20188;-75
2021/07/30 11:17:01;;;;;;;13.13;4.60;;;46.90;37.50;;;;;;5005606;28;20273;-76
2021/07/30 11:19:27;;;;;;;12.15;4.20;;;47.10;36.40;;;;;;5008549;28;20192;-76
2021/07/30 11:21:54;;;;;;;11.00;4.15;;;47.40;37.90;;;;;;5007904;28;20192;-76
2021/07/30 11:24:20;;;;;;;6.97;3.55;;;47.50;36.30;;;;;;5007319;28;20208;-76
2021/07/30 11:26:47;;;;;;;9.60;3.67;;;47.70;35.60;;;;;;5008148;28;20184;-77
2021/07/30 11:29:14;;;;;;;9.65;4.10;;;47.70;36.10;;;;;;5008838;28;20181;-76
2021/07/30 11:32:14;;;;;;;11.40;4.20;;;47.90;38.30;;;;;;5007629;28;20192;-76
2021/07/30 11:34:42;;;;;;;9.30;3.53;;;47.90;35.50;;;;;;4966088;28;20197;-76
2021/07/30 11:37:12;;;;;;;11.52;3.45;;;48.00;37.30;;;;;;4967188;28;20193;-75
2021/07/30 11:39:45;;;;;;;8.65;3.28;;;48.00;37.10;;;;;;4968001;28;20264;-77
2021/07/30 11:42:13;;;;;;;12.77;3.05;;;48.00;37.30;;;;;;4966476;28;20208;-76
2021/07/30 11:45:07;;;;;;;17.10;3.75;;;48.10;39.10;;;;;;4966387;28;20249;-76
2021/07/30 11:47:35;;;;;;;8.15;3.25;;;48.10;35.40;;;;;;4964913;28;20293;-76
2021/07/30 11:50:10;;;;;;;9.98;3.92;;;48.30;37.70;;;;;;4966291;28;20208;-76
2021/07/30 11:52:38;;;;;;;8.25;3.00;;;48.50;37.70;;;;;;4966853;28;20200;-76
2021/07/30 11:55:11;;;;;;;8.13;3.53;;;48.70;36.00;;;;;;4967172;28;21007;-76
2021/07/30 11:57:37;;;;;;;9.93;3.63;;;48.90;36.30;;;;;;4967466;28;20484;-76
2021/07/30 12:00:03;;;;;;;11.57;3.92;;;49.10;37.30;;;;;;4966969;28;20268;-77
2021/07/30 12:02:29;;;;;;;9.35;3.30;;;49.30;37.10;;;;;;4967104;28;20194;-76
2021/07/30 12:04:56;;;;;;;8.40;3.00;;;49.50;36.00;;;;;;4966287;28;20602;-76
2021/07/30 12:07:26;;;;;;;13.80;3.58;;;49.80;36.80;;;;;;4965981;28;20190;-76
2021/07/30 12:09:57;;;;;;;9.02;2.85;;;50.00;37.10;;;;;;4980758;28;20199;-76
2021/07/30 12:12:24;;;;;;;9.07;3.15;;;50.00;37.60;;;;;;5007896;28;20767;-76
2021/07/30 12:14:52;;;;;;;9.55;3.50;;;50.00;35.30;;;;;;5007158;28;20263;-76
2021/07/30 12:17:21;;;;;;;10.43;3.13;;;50.10;35.50;;;;;;5007581;28;20181;-76
2021/07/30 12:20:02;;;;;;;16.70;3.53;;;50.10;36.90;;;;;;5008319;28;20246;-76
2021/07/30 12:22:34;;;;;;;8.93;3.40;;;50.50;37.00;;;;;;5008167;28;20408;-76
2021/07/30 12:25:00;;;;;;;13.05;3.50;;;50.50;35.70;;;;;;5007330;28;20223;-76
2021/07/30 12:27:26;;;;;;;5.82;2.85;;;50.30;35.00;;;;;;5008948;28;20180;-76
2021/07/30 12:29:51;;;;;;;7.95;3.35;;;50.30;35.00;;;;;;5008267;28;20354;-76
2021/07/30 12:32:26;;;;;;;11.80;3.42;;;50.30;34.70;;;;;;5007840;28;21045;-76
2021/07/30 12:35:11;;;;;;;12.43;3.30;;;50.30;35.00;;;;;;5007717;28;20200;-76
2021/07/30 12:37:37;;;;;;;14.32;3.60;;;;;;;;;;5005655;28;20204;-76
2021/07/30 12:40:07;;;;;;;7.15;3.38;;;50.50;36.40;;;;;;5005141;28;20177;-76
2021/07/30 12:42:34;;;;;;;8.32;3.22;;;50.80;35.30;;;;;;5006411;28;20266;-76
2021/07/30 12:45:09;;;;;;;12.55;3.83;;;50.70;35.20;;;;;;5007099;28;20212;-77
2021/07/30 12:47:58;;;;;;;13.77;3.45;;;50.70;35.20;;;;;;5006192;28;20188;-76